Time;durP1;ratioP1;P1;durP2;ratioP2;P2;SDS_P1;SDS_P2;PMS_P1;PMS_P2;Temp;Humidity;BMP_temperature;BMP_pressure;BME280_temperature;BME280_humidity;BME280_pressure;Samples;Min_cycle;Max_cycle;Signal;HPM_P1;HPM_P2
2022/01/20 00:02:16;;;;;;;12.60;2.05;;;15.40;72.50;;;;;;4078971;29;20051;-73
2022/01/20 00:04:46;;;;;;;13.20;2.25;;;15.40;72.50;;;;;;4078638;29;20055;-73
2022/01/20 00:26:13;;;;;;;6.93;1.58;;;15.40;72.00;;;;;;4060817;29;20464;-72
2022/01/20 00:28:42;;;;;;;7.65;1.67;;;15.40;72.00;;;;;;4078022;29;20182;-72
2022/01/20 00:31:12;;;;;;;13.05;2.25;;;15.40;72.00;;;;;;4078592;29;20051;-72
2022/01/20 00:33:41;;;;;;;10.48;2.35;;;15.40;69.40;;;;;;4077090;29;21077;-72
2022/01/20 00:38:45;;;;;;;10.47;1.90;;;15.30;68.20;;;;;;4109878;28;20101;-71
2022/01/20 00:41:14;;;;;;;8.15;1.40;;;15.20;71.30;;;;;;4110396;28;20458;-71
2022/01/20 00:43:38;;;;;;;6.38;1.35;;;15.20;72.60;;;;;;4109891;28;20431;-71
2022/01/20 00:46:01;;;;;;;7.13;1.30;;;15.20;72.30;;;;;;4110353;28;20415;-70
2022/01/20 00:48:24;;;;;;;8.63;1.60;;;15.20;72.30;;;;;;4106604;28;20099;-71
2022/01/20 00:50:48;;;;;;;10.88;1.50;;;15.20;72.40;;;;;;4084077;28;20055;-73
2022/01/20 00:53:11;;;;;;;6.50;1.63;;;15.20;72.50;;;;;;4094012;28;20483;-73
2022/01/20 00:55:34;;;;;;;10.32;2.00;;;15.20;72.00;;;;;;4106293;28;20106;-73
2022/01/20 00:57:59;;;;;;;6.63;1.33;;;15.20;72.50;;;;;;4106145;28;20050;-71
2022/01/20 01:00:23;;;;;;;5.43;1.63;;;15.20;72.70;;;;;;4094160;28;20581;-72
2022/01/20 01:02:46;;;;;;;6.35;1.40;;;15.20;72.40;;;;;;4106529;28;20141;-72
2022/01/20 01:05:11;;;;;;;6.78;1.30;;;15.20;72.90;;;;;;4091857;28;20054;-71
2022/01/20 01:07:45;;;;;;;6.55;1.40;;;15.20;72.60;;;;;;4092392;28;20122;-71
2022/01/20 01:10:11;;;;;;;6.35;1.00;;;15.30;69.90;;;;;;4092054;28;20106;-72
2022/01/20 01:12:40;;;;;;;9.20;1.48;;;15.30;70.10;;;;;;4096099;28;20047;-72
2022/01/20 01:15:11;;;;;;;7.65;1.50;;;15.30;70.70;;;;;;4096673;28;20106;-72
2022/01/20 01:20:19;;;;;;;4.63;1.33;;;15.20;69.70;;;;;;4095183;28;20047;-72
2022/01/20 01:22:42;;;;;;;4.28;1.38;;;15.20;71.70;;;;;;4095476;28;20051;-72
2022/01/20 01:25:06;;;;;;;7.32;1.52;;;15.20;72.30;;;;;;4096929;28;20043;-72
2022/01/20 01:27:33;;;;;;;6.43;1.50;;;15.30;72.30;;;;;;4097025;28;20098;-72
2022/01/20 01:30:09;;;;;;;5.50;1.25;;;15.30;72.20;;;;;;4109043;28;20483;-72
2022/01/20 01:32:45;;;;;;;7.93;1.50;;;15.30;72.30;;;;;;4095189;28;20051;-72
2022/01/20 01:35:10;;;;;;;5.60;1.52;;;15.40;72.40;;;;;;4101819;28;20050;-73
2022/01/20 01:38:23;;;;;;;6.97;1.27;;;15.50;72.30;;;;;;4113001;28;20050;-72
2022/01/20 01:40:18;;;;;;;3.95;1.20;;;15.50;71.90;;;;;;4078643;29;20091;-72
2022/01/20 01:42:45;;;;;;;3.00;0.70;;;15.70;71.30;;;;;;4093094;28;20059;-72
2022/01/20 01:45:11;;;;;;;3.35;1.05;;;15.70;70.90;;;;;;4080906;29;20181;-72
2022/01/20 01:47:36;;;;;;;6.00;0.90;;;15.70;70.60;;;;;;4092815;28;20074;-72
2022/01/20 01:49:59;;;;;;;5.78;1.20;;;15.80;70.60;;;;;;4080852;29;20453;-72
2022/01/20 01:52:22;;;;;;;7.32;1.05;;;15.70;70.70;;;;;;4079507;29;20091;-73
2022/01/20 01:54:45;;;;;;;9.25;1.00;;;15.80;70.50;;;;;;4092593;28;20523;-72
2022/01/20 01:57:09;;;;;;;4.07;1.10;;;15.80;70.40;;;;;;4095315;28;20055;-72
2022/01/20 01:59:34;;;;;;;4.15;1.20;;;15.80;70.10;;;;;;4108838;28;20050;-72
2022/01/20 02:02:13;;;;;;;4.95;1.33;;;15.80;67.30;;;;;;4094455;28;20048;-71
2022/01/20 02:04:42;;;;;;;4.22;1.13;;;15.80;66.00;;;;;;4095217;28;20562;-72
2022/01/20 02:18:36;;;;;;;7.70;2.00;;;15.40;69.40;;;;;;4107973;28;20050;-72
2022/01/20 02:21:16;;;;;;;7.85;1.73;;;15.40;69.10;;;;;;4093329;28;20464;-72
2022/01/20 02:23:40;;;;;;;7.57;1.58;;;15.30;63.20;;;;;;4094771;28;20118;-71
2022/01/20 02:26:03;;;;;;;13.25;2.53;;;15.30;61.20;;;;;;4095312;28;20051;-72
2022/01/20 02:28:27;;;;;;;9.52;1.90;;;15.30;64.80;;;;;;4095059;28;20099;-72
2022/01/20 02:30:50;;;;;;;5.47;1.20;;;15.40;68.10;;;;;;4094927;28;20094;-72
2022/01/20 02:33:17;;;;;;;9.57;1.92;;;15.50;67.90;;;;;;4089511;28;20063;-71
2022/01/20 02:35:43;;;;;;;9.32;2.22;;;15.50;67.70;;;;;;4106559;28;20459;-72
2022/01/20 02:38:16;;;;;;;7.72;2.10;;;15.60;67.90;;;;;;4110193;28;20058;-70
2022/01/20 02:46:10;;;;;;;12.00;2.40;;;15.50;68.10;;;;;;4062975;28;20105;-72
2022/01/20 02:48:33;;;;;;;13.35;2.67;;;15.50;65.60;;;;;;4094008;28;20594;-73
2022/01/20 02:50:57;;;;;;;19.23;2.88;;;15.40;63.50;;;;;;4093946;28;20050;-71
2022/01/20 02:53:22;;;;;;;13.93;2.72;;;15.40;64.20;;;;;;4088230;28;20055;-72
2022/01/20 02:55:45;;;;;;;17.13;2.33;;;15.30;64.50;;;;;;4078300;29;20083;-72
2022/01/20 02:58:09;;;;;;;12.98;2.10;;;15.20;66.60;;;;;;4092044;28;20051;-72
2022/01/20 03:00:33;;;;;;;14.57;4.30;;;15.10;67.10;;;;;;4080020;29;20099;-71
2022/01/20 03:02:56;;;;;;;18.05;3.33;;;15.10;63.20;;;;;;4079770;29;20051;-73
2022/01/20 03:05:20;;;;;;;6.88;1.25;;;15.10;61.10;;;;;;4078246;28;20052;-71
2022/01/20 03:07:50;;;;;;;5.13;1.35;;;15.10;61.90;;;;;;4100014;28;20042;-72
2022/01/20 03:10:14;;;;;;;9.05;2.58;;;15.10;60.00;;;;;;4107748;28;20134;-72
2022/01/20 03:12:37;;;;;;;16.13;3.60;;;15.10;58.50;;;;;;4105397;28;20063;-72
2022/01/20 03:15:00;;;;;;;11.80;2.80;;;15.10;58.60;;;;;;4093851;28;20051;-72
2022/01/20 03:17:23;;;;;;;18.88;3.65;;;15.20;59.20;;;;;;4107060;28;20054;-71
2022/01/20 03:19:46;;;;;;;14.52;3.22;;;15.30;58.40;;;;;;4093745;28;20051;-71
2022/01/20 03:22:10;;;;;;;17.73;4.18;;;15.40;58.50;;;;;;4093839;28;20090;-72
2022/01/20 03:24:33;;;;;;;11.20;2.20;;;15.50;61.40;;;;;;4099996;28;20039;-71
2022/01/20 03:26:58;;;;;;;17.33;3.95;;;15.50;60.00;;;;;;4081638;28;20052;-71
2022/01/20 03:29:21;;;;;;;15.57;4.28;;;15.50;60.30;;;;;;4079135;28;20504;-71
2022/01/20 03:31:45;;;;;;;17.60;4.38;;;15.50;59.50;;;;;;4094675;28;20372;-71
2022/01/20 03:34:08;;;;;;;17.05;3.42;;;15.50;59.00;;;;;;4094513;28;20055;-71
2022/01/20 03:36:36;;;;;;;16.73;3.55;;;15.40;58.50;;;;;;4077005;29;20544;-71
2022/01/20 03:39:07;;;;;;;19.52;3.40;;;15.30;59.80;;;;;;4089662;28;20086;-71
2022/01/20 03:41:32;;;;;;;11.75;3.25;;;15.30;61.10;;;;;;4099031;28;20482;-71
2022/01/20 03:44:01;;;;;;;13.52;2.90;;;15.30;58.70;;;;;;4107481;28;20439;-70
2022/01/20 03:46:24;;;;;;;13.55;2.35;;;15.30;59.50;;;;;;4093916;28;20118;-70
2022/01/20 03:48:52;;;;;;;8.60;2.80;;;15.30;59.60;;;;;;4094790;28;20114;-71
2022/01/20 03:51:15;;;;;;;8.93;2.90;;;15.30;61.70;;;;;;4107274;28;20054;-71
2022/01/20 03:53:38;;;;;;;10.45;2.13;;;15.30;62.10;;;;;;4095003;28;20051;-71
2022/01/20 03:56:09;;;;;;;11.23;2.25;;;15.40;61.60;;;;;;4093056;28;20102;-71
2022/01/20 03:58:46;;;;;;;5.90;2.53;;;15.50;61.60;;;;;;4103838;28;20105;-71
2022/01/20 04:01:10;;;;;;;9.80;1.95;;;15.50;61.90;;;;;;4094413;28;20113;-71
2022/01/20 04:03:56;;;;;;;8.02;1.77;;;15.50;61.60;;;;;;4092884;28;20115;-71
2022/01/20 04:06:32;;;;;;;7.07;1.50;;;15.50;61.10;;;;;;4092875;28;20055;-72
2022/01/20 04:08:55;;;;;;;4.97;1.50;;;15.60;59.90;;;;;;4077287;29;20432;-72
2022/01/20 04:11:21;;;;;;;10.02;2.17;;;15.60;58.80;;;;;;4090833;28;20047;-71
2022/01/20 04:13:45;;;;;;;8.50;2.67;;;15.70;60.90;;;;;;4078361;29;20099;-71
2022/01/20 04:16:33;;;;;;;10.20;2.22;;;15.70;60.40;;;;;;4092092;28;20083;-72
2022/01/20 04:18:59;;;;;;;11.98;2.40;;;15.70;59.50;;;;;;4105948;28;20046;-72
2022/01/20 04:21:26;;;;;;;12.80;2.80;;;15.70;59.40;;;;;;4106363;28;20058;-72
2022/01/20 04:23:49;;;;;;;9.73;2.05;;;15.70;60.00;;;;;;4106377;28;20051;-71
2022/01/20 04:26:12;;;;;;;20.73;2.88;;;15.70;58.50;;;;;;4106735;28;20110;-71
2022/01/20 04:28:35;;;;;;;11.30;2.45;;;15.70;59.70;;;;;;4090630;29;20102;-71
2022/01/20 04:30:58;;;;;;;9.25;2.47;;;15.60;59.00;;;;;;4077257;29;20043;-71
2022/01/20 04:33:23;;;;;;;9.07;2.40;;;15.50;58.40;;;;;;4076961;29;20043;-70
2022/01/20 04:35:46;;;;;;;8.73;2.03;;;15.50;59.30;;;;;;4100058;28;20046;-70
2022/01/20 04:38:09;;;;;;;7.03;2.53;;;15.40;57.60;;;;;;4107970;28;20754;-72
2022/01/20 04:40:38;;;;;;;18.42;4.10;;;15.30;54.90;;;;;;4108985;28;20060;-71
2022/01/20 04:43:02;;;;;;;17.63;3.20;;;15.20;53.10;;;;;;4090241;28;20082;-71
2022/01/20 04:45:32;;;;;;;14.73;4.35;;;15.10;54.50;;;;;;4077379;29;20048;-71
2022/01/20 04:48:03;;;;;;;14.30;3.15;;;14.90;54.20;;;;;;4090318;28;20051;-71
2022/01/20 04:58:27;;;;;;;6.40;2.05;;;15.20;59.90;;;;;;4083898;28;20451;-71
2022/01/20 05:00:50;;;;;;;11.93;2.20;;;15.40;59.40;;;;;;4106015;28;20051;-71
2022/01/20 05:03:34;;;;;;;18.80;2.78;;;15.60;58.80;;;;;;4093098;28;20054;-71
2022/01/20 05:06:11;;;;;;;9.90;2.03;;;15.70;57.90;;;;;;4105484;28;20070;-71
2022/01/20 05:08:33;;;;;;;9.95;2.45;;;15.70;58.20;;;;;;4093531;28;20102;-71
2022/01/20 05:11:01;;;;;;;9.93;1.98;;;15.80;58.10;;;;;;4105830;28;20050;-71
2022/01/20 05:13:33;;;;;;;10.68;1.90;;;15.80;57.70;;;;;;4104861;28;20043;-71
2022/01/20 05:15:56;;;;;;;10.82;2.17;;;15.70;58.20;;;;;;4090681;28;20043;-71
2022/01/20 05:18:19;;;;;;;12.57;2.22;;;15.70;58.70;;;;;;4092470;28;20103;-71
2022/01/20 05:20:42;;;;;;;11.05;2.25;;;15.60;58.20;;;;;;4091750;28;20550;-71
2022/01/20 05:23:06;;;;;;;10.25;1.95;;;15.60;58.40;;;;;;4092084;28;20087;-70
2022/01/20 05:25:30;;;;;;;15.77;2.88;;;15.60;59.10;;;;;;4092434;28;20047;-70
2022/01/20 05:27:52;;;;;;;6.65;1.83;;;15.60;59.30;;;;;;4093670;28;20216;-70
2022/01/20 05:30:16;;;;;;;9.18;2.63;;;15.50;59.00;;;;;;4092312;28;20047;-70
2022/01/20 05:33:00;;;;;;;11.07;2.38;;;15.50;59.20;;;;;;4077076;29;20055;-72
2022/01/20 05:35:23;;;;;;;11.85;2.55;;;15.50;59.10;;;;;;4093437;28;20054;-71
2022/01/20 05:37:46;;;;;;;4.85;1.60;;;15.50;59.50;;;;;;4109524;28;20094;-71
2022/01/20 05:40:11;;;;;;;7.18;1.88;;;15.40;58.20;;;;;;4108246;28;20058;-72
2022/01/20 05:42:36;;;;;;;7.82;2.20;;;15.40;58.90;;;;;;4108421;28;20090;-71
2022/01/20 05:45:07;;;;;;;6.80;2.03;;;15.40;54.30;;;;;;4107717;28;20113;-72
2022/01/20 05:47:31;;;;;;;6.72;2.10;;;15.30;53.70;;;;;;4122035;28;20614;-72
2022/01/20 05:50:03;;;;;;;4.88;1.27;;;15.30;55.40;;;;;;4077899;28;20051;-72
2022/01/20 05:52:27;;;;;;;5.68;2.45;;;15.20;57.90;;;;;;4075914;29;20083;-72
2022/01/20 05:54:50;;;;;;;8.38;1.63;;;15.20;58.60;;;;;;4076367;28;20075;-73
2022/01/20 05:57:15;;;;;;;8.30;1.90;;;15.20;59.10;;;;;;4077674;28;20044;-73
2022/01/20 05:59:44;;;;;;;5.43;1.70;;;15.20;59.50;;;;;;4079648;29;20583;-73
2022/01/20 06:02:12;;;;;;;5.45;1.60;;;15.30;59.60;;;;;;4079209;28;20047;-72
2022/01/20 06:04:36;;;;;;;6.03;1.88;;;15.40;60.30;;;;;;4079121;29;20047;-72
2022/01/20 06:06:59;;;;;;;8.10;2.03;;;15.50;59.10;;;;;;4093963;28;20075;-71
2022/01/20 06:09:22;;;;;;;14.10;2.83;;;15.60;59.40;;;;;;4096369;28;20106;-72
2022/01/20 06:11:45;;;;;;;8.13;1.77;;;15.70;59.50;;;;;;4094978;28;20083;-73
2022/01/20 06:14:12;;;;;;;8.98;2.13;;;15.70;59.70;;;;;;4094732;28;20464;-72
2022/01/20 06:16:38;;;;;;;10.05;1.98;;;15.70;59.60;;;;;;4094794;28;20050;-72
2022/01/20 06:19:02;;;;;;;9.40;2.35;;;15.70;59.80;;;;;;4094635;28;20404;-72
2022/01/20 06:21:26;;;;;;;11.63;2.35;;;15.70;57.60;;;;;;4094332;28;20103;-72
2022/01/20 06:23:49;;;;;;;12.45;3.47;;;15.70;57.90;;;;;;4078532;29;20147;-73
2022/01/20 06:26:14;;;;;;;12.05;2.42;;;15.80;57.60;;;;;;4078595;29;20142;-73
2022/01/20 06:28:40;;;;;;;9.55;2.65;;;15.80;58.10;;;;;;4092240;28;20483;-73
2022/01/20 06:31:06;;;;;;;6.82;2.08;;;15.80;57.20;;;;;;4078473;29;20048;-73
2022/01/20 06:33:29;;;;;;;8.00;1.80;;;15.80;55.10;;;;;;4092174;28;20102;-72
2022/01/20 06:35:54;;;;;;;6.75;2.00;;;15.80;57.20;;;;;;4120913;28;20085;-72
2022/01/20 06:38:18;;;;;;;6.47;1.65;;;15.80;57.50;;;;;;4124322;28;20506;-73
2022/01/20 06:40:41;;;;;;;6.43;1.77;;;15.70;57.90;;;;;;4112075;28;20042;-73
2022/01/20 06:43:05;;;;;;;6.80;1.85;;;15.70;57.90;;;;;;4111844;28;20101;-72
2022/01/20 06:45:28;;;;;;;8.15;1.63;;;15.70;57.90;;;;;;4123980;28;20054;-72
2022/01/20 06:48:16;;;;;;;9.90;2.05;;;15.60;57.40;;;;;;4111281;28;20046;-70
2022/01/20 06:51:02;;;;;;;8.95;2.10;;;15.70;58.40;;;;;;4071714;29;20055;-74
2022/01/20 06:53:25;;;;;;;6.13;1.85;;;15.60;58.10;;;;;;4078825;28;20458;-72
2022/01/20 06:55:49;;;;;;;12.15;1.73;;;15.70;58.70;;;;;;4091864;28;20047;-72
2022/01/20 06:58:13;;;;;;;6.45;2.13;;;15.60;58.90;;;;;;4106127;28;20101;-73
2022/01/20 07:00:36;;;;;;;12.85;2.25;;;15.60;58.50;;;;;;4080323;29;20051;-71
2022/01/20 07:02:59;;;;;;;8.60;1.67;;;15.50;58.50;;;;;;4085428;28;20439;-71
2022/01/20 07:05:24;;;;;;;9.48;2.33;;;15.40;57.40;;;;;;4107585;28;20082;-72
2022/01/20 07:07:49;;;;;;;6.82;1.73;;;15.40;54.60;;;;;;4103299;28;20149;-74
2022/01/20 07:10:19;;;;;;;6.30;1.83;;;15.20;56.80;;;;;;4103255;28;20051;-74
2022/01/20 07:12:49;;;;;;;4.57;1.48;;;15.10;54.70;;;;;;4095858;28;20082;-72
2022/01/20 07:15:15;;;;;;;7.90;1.83;;;15.00;56.50;;;;;;4094270;28;20102;-73
2022/01/20 07:17:40;;;;;;;7.57;1.73;;;14.90;57.70;;;;;;4097887;28;20880;-73
2022/01/20 07:20:04;;;;;;;10.80;2.08;;;14.90;57.90;;;;;;4108695;28;20051;-74
2022/01/20 07:22:32;;;;;;;8.98;1.88;;;14.90;59.10;;;;;;4107797;28;20054;-73
2022/01/20 07:24:58;;;;;;;9.82;1.90;;;15.00;59.20;;;;;;4112045;28;20426;-71
2022/01/20 07:27:52;;;;;;;7.60;2.20;;;15.00;58.70;;;;;;4092567;28;20107;-76
2022/01/20 07:30:26;;;;;;;10.60;2.13;;;15.10;59.80;;;;;;4108964;28;20117;-76
2022/01/20 07:32:49;;;;;;;9.35;1.85;;;15.20;60.00;;;;;;4094953;28;20463;-75
2022/01/20 07:35:18;;;;;;;6.90;2.13;;;15.30;60.70;;;;;;4094979;28;20050;-76
2022/01/20 07:37:43;;;;;;;7.22;1.80;;;15.30;59.60;;;;;;4094547;28;20161;-75
2022/01/20 07:40:08;;;;;;;10.93;2.42;;;15.40;58.90;;;;;;4094187;28;20143;-75
2022/01/20 07:42:33;;;;;;;11.55;2.03;;;15.40;59.70;;;;;;4094096;28;20055;-75
2022/01/20 07:45:06;;;;;;;7.03;1.85;;;15.40;58.80;;;;;;4106342;28;20097;-76
2022/01/20 07:47:38;;;;;;;7.35;1.98;;;15.40;57.30;;;;;;4107496;28;20043;-76
2022/01/20 07:50:01;;;;;;;7.40;2.10;;;15.40;58.00;;;;;;4078229;29;20123;-71
2022/01/20 07:52:25;;;;;;;9.85;1.98;;;15.40;58.70;;;;;;4077828;28;20060;-75
2022/01/20 07:54:49;;;;;;;8.10;2.10;;;15.40;58.50;;;;;;4078781;29;20135;-71
2022/01/20 07:57:13;;;;;;;6.47;1.98;;;15.40;58.60;;;;;;4430569;23;20394;-71
2022/01/20 07:59:35;;;;;;;10.35;1.98;;;15.50;58.60;;;;;;4154839;28;20091;-71
2022/01/20 08:01:59;;;;;;;4.80;1.25;;;15.60;59.00;;;;;;4153850;28;20092;-72
2022/01/20 08:04:23;;;;;;;7.95;1.40;;;15.60;57.80;;;;;;4154541;28;20682;-74
2022/01/20 08:06:46;;;;;;;5.28;1.52;;;15.60;57.90;;;;;;4153325;28;20077;-75
2022/01/20 08:09:14;;;;;;;5.88;1.58;;;15.60;58.30;;;;;;4138712;28;20049;-74
2022/01/20 08:12:01;;;;;;;9.25;1.90;;;15.60;56.90;;;;;;4130116;28;20060;-75
2022/01/20 08:14:43;;;;;;;7.55;1.50;;;15.60;58.50;;;;;;4125331;28;20464;-77
2022/01/20 08:17:11;;;;;;;5.32;1.65;;;15.60;59.00;;;;;;4139688;28;20433;-76
2022/01/20 08:19:39;;;;;;;7.43;1.70;;;15.70;58.50;;;;;;4138434;28;20448;-77
2022/01/20 08:22:02;;;;;;;8.38;1.50;;;15.70;57.90;;;;;;4138403;28;20054;-77
2022/01/20 08:24:41;;;;;;;6.28;1.73;;;15.60;58.00;;;;;;4133860;28;20116;-77
2022/01/20 08:27:06;;;;;;;7.20;2.03;;;15.60;58.10;;;;;;4156133;28;20106;-77
2022/01/20 08:29:29;;;;;;;9.90;2.65;;;15.50;57.80;;;;;;4141467;28;20073;-78
2022/01/20 08:31:53;;;;;;;8.35;2.35;;;15.50;57.80;;;;;;4143050;28;20045;-78
2022/01/20 08:34:39;;;;;;;10.80;1.90;;;15.40;58.70;;;;;;4142801;28;20378;-77
2022/01/20 08:37:25;;;;;;;10.40;2.90;;;15.40;59.10;;;;;;4141897;28;20486;-78
2022/01/20 08:39:48;;;;;;;6.60;1.83;;;15.40;59.00;;;;;;4149728;28;20060;-73
2022/01/20 08:42:14;;;;;;;4.97;2.08;;;15.40;57.90;;;;;;4171095;28;20049;-74
2022/01/20 08:44:37;;;;;;;11.07;2.38;;;15.40;58.30;;;;;;4161295;28;20057;-71
2022/01/20 08:47:02;;;;;;;11.82;2.40;;;15.40;58.20;;;;;;4139274;28;20062;-74
2022/01/20 08:49:26;;;;;;;5.80;1.90;;;15.40;59.10;;;;;;4138554;28;20061;-74
2022/01/20 08:51:52;;;;;;;7.40;2.42;;;15.30;57.50;;;;;;4137452;28;20456;-74
2022/01/20 08:54:22;;;;;;;11.40;2.20;;;15.30;56.80;;;;;;4138326;28;20111;-76
2022/01/20 08:56:55;;;;;;;6.43;1.75;;;15.20;57.60;;;;;;4138118;28;20049;-77
2022/01/20 08:59:20;;;;;;;8.75;1.90;;;15.20;57.90;;;;;;4139124;28;20453;-77
2022/01/20 09:01:44;;;;;;;12.40;1.95;;;15.20;57.40;;;;;;4151347;28;20080;-74
2022/01/20 09:04:08;;;;;;;8.82;2.05;;;15.30;58.30;;;;;;4138056;28;20034;-73
2022/01/20 09:06:40;;;;;;;10.63;2.97;;;15.40;58.20;;;;;;4137819;28;20050;-74
2022/01/20 09:09:14;;;;;;;6.60;2.55;;;15.50;58.00;;;;;;4137789;28;20096;-65
2022/01/20 09:11:49;;;;;;;6.05;2.00;;;15.50;57.90;;;;;;4138044;28;20053;-71
2022/01/20 09:16:56;;;;;;;9.27;2.15;;;15.60;58.10;;;;;;4137395;28;20049;-72
2022/01/20 09:19:21;;;;;;;11.20;2.60;;;15.60;56.80;;;;;;4135686;28;20054;-70
2022/01/20 09:21:53;;;;;;;17.70;7.20;;;15.60;57.50;;;;;;4136834;28;20081;-69
2022/01/20 09:24:17;;;;;;;21.90;8.63;;;15.50;58.60;;;;;;4137730;28;20090;-70
2022/01/20 09:26:41;;;;;;;7.40;1.60;;;15.50;58.40;;;;;;4137574;28;20050;-70
2022/01/20 09:29:04;;;;;;;8.77;2.17;;;15.60;59.10;;;;;;4137860;28;20045;-70
2022/01/20 09:31:32;;;;;;;10.77;2.78;;;15.60;59.80;;;;;;4138505;28;20054;-75
2022/01/20 09:33:58;;;;;;;11.20;4.32;;;15.60;58.90;;;;;;4141385;28;20050;-76
2022/01/20 09:36:25;;;;;;;7.88;2.45;;;15.70;59.30;;;;;;4140735;28;20057;-70
2022/01/20 09:38:48;;;;;;;7.53;2.30;;;15.60;58.50;;;;;;4140971;28;20085;-69
2022/01/20 09:41:27;;;;;;;12.85;4.80;;;15.60;57.80;;;;;;4140339;28;20054;-75
2022/01/20 09:43:51;;;;;;;9.85;3.45;;;15.50;58.10;;;;;;4142540;28;20100;-70
2022/01/20 09:46:14;;;;;;;10.48;3.72;;;15.50;57.70;;;;;;4140990;28;20062;-70
2022/01/20 09:48:41;;;;;;;10.93;3.85;;;15.40;55.90;;;;;;4153589;28;20080;-72
2022/01/20 09:51:28;;;;;;;6.20;2.00;;;15.30;57.20;;;;;;4139395;28;20469;-72
2022/01/20 09:54:05;;;;;;;6.32;1.23;;;15.30;58.40;;;;;;4140348;28;20104;-72
2022/01/20 09:56:56;;;;;;;3.80;1.45;;;15.30;56.30;;;;;;4141515;28;20283;-78
2022/01/20 09:59:19;;;;;;;5.25;1.90;;;15.40;57.50;;;;;;4142999;28;20053;-78
2022/01/20 10:01:45;;;;;;;7.22;1.70;;;15.40;57.70;;;;;;4140818;28;20049;-77
2022/01/20 10:04:22;;;;;;;6.80;1.83;;;15.40;57.90;;;;;;4156727;28;20137;-77
2022/01/20 10:06:55;;;;;;;10.25;1.92;;;15.40;57.10;;;;;;4143883;28;20045;-76
2022/01/20 10:09:27;;;;;;;19.13;6.75;;;15.50;57.10;;;;;;4139918;28;20428;-71
2022/01/20 10:12:08;;;;;;;25.38;8.50;;;15.40;55.90;;;;;;4139687;28;20050;-71
2022/01/20 10:15:01;;;;;;;30.88;12.65;;;15.40;56.80;;;;;;4081067;28;20047;-77
2022/01/20 10:17:47;;;;;;;16.75;5.72;;;15.30;58.30;;;;;;4142895;28;20182;-77
2022/01/20 10:20:16;;;;;;;14.93;5.53;;;15.30;58.90;;;;;;4141020;28;20073;-76
2022/01/20 10:22:56;;;;;;;15.45;6.50;;;15.20;58.80;;;;;;4141674;28;20049;-76
2022/01/20 10:25:37;;;;;;;17.30;5.25;;;15.20;58.90;;;;;;4143250;28;20481;-76
2022/01/20 10:28:09;;;;;;;11.60;4.53;;;15.10;58.30;;;;;;4143659;28;20100;-75
2022/01/20 10:30:34;;;;;;;4.07;1.48;;;15.00;57.90;;;;;;4139343;28;20111;-76
2022/01/20 10:33:01;;;;;;;7.82;2.53;;;15.00;56.60;;;;;;4139515;28;20053;-71
2022/01/20 10:35:35;;;;;;;4.45;1.23;;;14.90;55.00;;;;;;4139315;28;20453;-71
2022/01/20 10:38:12;;;;;;;4.88;1.73;;;14.80;55.50;;;;;;4139701;28;20045;-77
2022/01/20 10:41:08;;;;;;;7.72;2.05;;;14.70;56.40;;;;;;4140075;28;20053;-72
2022/01/20 10:43:34;;;;;;;7.40;2.70;;;14.70;57.80;;;;;;4140441;28;20480;-80
2022/01/20 10:46:13;;;;;;;4.07;2.22;;;14.70;58.60;;;;;;4155200;28;20487;-83
2022/01/20 10:48:37;;;;;;;8.38;2.38;;;14.70;59.00;;;;;;4142906;28;20049;-82
2022/01/20 10:51:01;;;;;;;7.68;1.77;;;14.80;59.00;;;;;;4143025;28;20045;-83
2022/01/20 10:53:27;;;;;;;5.78;1.90;;;14.80;58.70;;;;;;4142707;28;20061;-79
2022/01/20 10:56:05;;;;;;;8.75;3.17;;;14.90;57.70;;;;;;4152966;28;20045;-70
2022/01/20 10:58:30;;;;;;;6.10;2.28;;;14.90;58.30;;;;;;4138688;28;20050;-71
2022/01/20 11:00:56;;;;;;;4.70;1.80;;;14.90;58.20;;;;;;4139986;28;20054;-70
2022/01/20 11:03:24;;;;;;;7.40;1.90;;;14.90;57.10;;;;;;4139317;28;20050;-71
2022/01/20 11:05:51;;;;;;;7.40;2.00;;;14.90;56.70;;;;;;4139497;28;20042;-70
2022/01/20 11:08:38;;;;;;;5.78;1.80;;;14.90;57.60;;;;;;4140029;28;20045;-71
2022/01/20 11:11:03;;;;;;;7.25;2.15;;;14.80;58.40;;;;;;4152386;28;20057;-71
2022/01/20 11:13:45;;;;;;;14.13;1.83;;;14.80;58.60;;;;;;4139997;28;20046;-71
2022/01/20 11:16:08;;;;;;;6.47;1.67;;;14.70;58.80;;;;;;4139813;28;20471;-71
2022/01/20 11:18:32;;;;;;;8.35;3.10;;;14.80;58.80;;;;;;4139580;28;20045;-71
2022/01/20 11:21:02;;;;;;;7.18;2.33;;;14.80;58.60;;;;;;4140930;28;20063;-71
2022/01/20 11:23:38;;;;;;;11.35;3.97;;;14.80;58.30;;;;;;4141146;28;20054;-81
2022/01/20 11:26:20;;;;;;;9.23;2.53;;;14.90;58.80;;;;;;4141422;28;20053;-80
2022/01/20 11:29:00;;;;;;;8.93;2.00;;;14.90;58.90;;;;;;4141047;28;20116;-80
2022/01/20 11:31:41;;;;;;;4.78;1.75;;;14.90;57.60;;;;;;4140705;28;20115;-79
2022/01/20 11:34:41;;;;;;;11.43;2.42;;;15.00;57.70;;;;;;4153160;28;20042;-79
2022/01/20 11:37:08;;;;;;;6.93;1.88;;;15.00;57.10;;;;;;4140560;28;20045;-77
2022/01/20 11:39:43;;;;;;;10.50;2.13;;;15.00;57.50;;;;;;4141346;28;20049;-79
2022/01/20 11:42:07;;;;;;;10.52;2.28;;;15.10;57.70;;;;;;4141165;28;20103;-79
2022/01/20 11:44:32;;;;;;;9.77;2.25;;;15.20;56.60;;;;;;4141237;28;20128;-79
2022/01/20 11:47:06;;;;;;;11.35;2.35;;;15.20;55.10;;;;;;4140947;28;20057;-78
2022/01/20 11:49:36;;;;;;;7.13;2.58;;;15.20;54.40;;;;;;4140299;28;20053;-78
2022/01/20 11:52:04;;;;;;;13.95;1.90;;;15.20;55.00;;;;;;4140033;28;20050;-79
2022/01/20 11:54:30;;;;;;;6.95;2.17;;;15.20;54.60;;;;;;4139733;28;20057;-80
2022/01/20 11:57:09;;;;;;;10.38;2.80;;;15.20;55.80;;;;;;4140433;28;20049;-79
2022/01/20 11:59:38;;;;;;;7.53;2.35;;;15.10;55.50;;;;;;4140720;28;20382;-77
2022/01/20 12:02:00;;;;;;;7.10;1.65;;;15.10;54.90;;;;;;4141842;28;20476;-78
2022/01/20 12:04:32;;;;;;;5.00;1.13;;;15.00;54.10;;;;;;4139369;28;20151;-79
2022/01/20 12:06:55;;;;;;;3.00;0.68;;;15.00;54.60;;;;;;4139228;28;20049;-79
2022/01/20 12:09:30;;;;;;;4.80;1.20;;;14.90;55.20;;;;;;4141258;28;20049;-81
2022/01/20 12:11:54;;;;;;;1.75;0.70;;;14.90;57.00;;;;;;4140742;28;20050;-81
2022/01/20 12:14:34;;;;;;;2.20;1.60;;;14.90;57.50;;;;;;4140936;28;20557;-79
2022/01/20 12:17:03;;;;;;;3.13;1.00;;;14.90;57.60;;;;;;4140274;28;20050;-82
2022/01/20 12:19:26;;;;;;;3.25;0.90;;;15.00;57.80;;;;;;4141226;28;20061;-82
2022/01/20 12:21:50;;;;;;;3.83;1.50;;;15.00;58.30;;;;;;4141092;28;20081;-80
2022/01/20 12:24:12;;;;;;;3.67;1.35;;;15.00;58.30;;;;;;4142310;28;20049;-82
2022/01/20 12:26:37;;;;;;;3.38;1.10;;;15.00;58.40;;;;;;4140900;28;20108;-82
2022/01/20 12:29:03;;;;;;;5.82;1.17;;;15.00;58.60;;;;;;4141714;28;20112;-81
2022/01/20 12:31:27;;;;;;;4.57;1.42;;;15.10;59.30;;;;;;4142035;28;20046;-81
2022/01/20 12:33:53;;;;;;;3.38;1.45;;;15.30;59.00;;;;;;4141577;28;20482;-81
2022/01/20 12:36:18;;;;;;;7.53;3.20;;;15.30;58.70;;;;;;4140193;28;20061;-82
2022/01/20 12:38:42;;;;;;;8.38;1.70;;;15.50;58.30;;;;;;4140845;28;20060;-83
2022/01/20 12:41:07;;;;;;;7.80;1.60;;;15.50;58.20;;;;;;4154957;28;20071;-82
2022/01/20 12:43:42;;;;;;;4.97;1.17;;;15.50;56.80;;;;;;4143002;28;20045;-81
2022/01/20 12:46:07;;;;;;;6.90;2.20;;;15.40;56.60;;;;;;4126460;28;20043;-80
2022/01/20 12:48:30;;;;;;;8.05;2.33;;;15.40;58.20;;;;;;4126542;28;20171;-82
2022/01/20 12:51:01;;;;;;;7.75;1.83;;;15.30;58.50;;;;;;4126455;28;20568;-80
2022/01/20 12:53:36;;;;;;;10.87;2.40;;;15.20;58.60;;;;;;4129047;28;20125;-80
2022/01/20 12:55:59;;;;;;;9.73;2.10;;;15.20;58.90;;;;;;4128191;28;20457;-81
2022/01/20 12:58:22;;;;;;;7.45;1.83;;;15.10;58.20;;;;;;4126646;28;20054;-81
2022/01/20 13:00:45;;;;;;;7.10;2.30;;;15.10;59.10;;;;;;4131495;28;20100;-81
2022/01/20 13:03:10;;;;;;;12.20;2.03;;;15.00;59.30;;;;;;4141533;28;20165;-80
2022/01/20 13:05:40;;;;;;;8.65;2.40;;;15.00;60.20;;;;;;4142911;28;20497;-80
2022/01/20 13:08:04;;;;;;;9.98;2.08;;;14.90;59.70;;;;;;4143560;28;20103;-81
2022/01/20 13:10:33;;;;;;;9.38;2.05;;;14.90;59.30;;;;;;4129715;28;20116;-81
2022/01/20 13:12:56;;;;;;;8.30;2.47;;;14.90;58.30;;;;;;4128760;28;20148;-81
2022/01/20 13:15:19;;;;;;;9.18;2.08;;;14.80;58.10;;;;;;4129120;28;20109;-80
2022/01/20 13:17:43;;;;;;;13.30;3.25;;;14.80;58.90;;;;;;4128101;28;20046;-81
2022/01/20 13:20:16;;;;;;;15.07;2.60;;;14.70;58.30;;;;;;4130009;28;20093;-80
2022/01/20 13:22:42;;;;;;;13.48;2.70;;;14.60;58.40;;;;;;4127792;28;20050;-80
2022/01/20 13:25:07;;;;;;;13.35;2.83;;;14.60;57.90;;;;;;4129280;28;20054;-79
2022/01/20 13:27:30;;;;;;;15.55;5.60;;;14.50;59.00;;;;;;4128952;28;20101;-80
2022/01/20 13:29:54;;;;;;;11.27;3.40;;;14.50;58.10;;;;;;4129364;28;20050;-80
2022/01/20 13:32:18;;;;;;;11.60;2.92;;;14.40;58.30;;;;;;4130436;28;20046;-79
2022/01/20 13:34:51;;;;;;;14.15;2.22;;;14.30;59.10;;;;;;4133729;28;20054;-80
2022/01/20 13:37:16;;;;;;;8.23;2.22;;;14.30;58.70;;;;;;4133730;28;20046;-81
2022/01/20 13:39:41;;;;;;;9.75;2.20;;;14.20;58.50;;;;;;4133514;28;20127;-81